AirNav   TITAN Aviation Fuels
 
 718 users online  

25AK Honeybee Lake Aero Park Airport
Willow, Alaska, USA

GOING TO WILLOW?


FAA INFORMATION EFFECTIVE 21 APRIL 2022

Location

FAA Identifier: 25AK
Lat/Long: 61-42-44.0600N 150-03-47.9900W
61-42.734333N 150-03.799833W
61.7122389,-150.0633306
(estimated)
Elevation: 200 ft. / 61 m (estimated)
Variation: 24E (1995)
From city: 1 mile N of WILLOW, AK
Time zone: UTC -8 (UTC -9 during Standard Time)
Zip code: 99688

Airport Operations

Airport use: Private use. Permission required prior to landing
Activation date: 03/2000
Control tower: no
ARTCC: ANCHORAGE CENTER
FSS: KENAI FLIGHT SERVICE STATION [907-283-7211]
Attendance: UNATNDD
Pattern altitude: TRAFFIC PATTERN SHALL REMAIN WEST OF THE PARKS HIGHWAY.
Wind indicator: yes
Segmented circle: no

Airport Communications

CTAF/UNICOM: 122.8
WX AWOS-3P at IYS (17 nm SE): 135.25 (907-373-3801)

Nearby radio navigation aids

VOR radial/distance  VOR name  Freq  Var
BGQr323/9.0BIG LAKE VORTAC112.5019E
TEDr337/32.8ANCHORAGE VOR/DME113.1518E
TKAr159/35.2TALKEETNA VOR/DME116.2019E

 
NDB name  Hdg/Dist  Freq  Var  ID
PETERS CREEK163/37.130516EPEE .--. . .

Airport Services

Runway Information

Runway 4/22

Dimensions: 2000 x 30 ft. / 610 x 9 m
Surface: gravel
RUNWAY 4  RUNWAY 22
Traffic pattern: rightleft

Runway 15/33

Dimensions: 1200 x 30 ft. / 366 x 9 m
Surface: gravel
RUNWAY 15  RUNWAY 33
Traffic pattern: leftright

Airport Ownership and Management from official FAA records

Ownership: Privately-owned
Owner: HONEYBEE LAKE AERO PARK OWNERS ASOC
PO BOX 957
WILLOW, AK 99688
Phone (907) 495-3674
PRESIDENT: JEFF BERTRAND
Manager: MIKE FRAHM
PO BOX 957
WILLOW, AK 99688
Phone 907-495-3674

Airport Operational Statistics

Aircraft based on the field: 7
Single engine airplanes: 7
    

Additional Remarks

OWNER DESIRES ARPT NOT BE CHARTED.

Instrument Procedures

There are no published instrument procedures at 25AK.

Some nearby airports with instrument procedures:

PAUO - Willow Airport (3 nm N)
PAGQ - Big Lake Airport (13 nm SE)
PAWS - Wasilla Airport (17 nm SE)
PAED - Elmendorf Air Force Base (29 nm S)
PAAQ - Warren "Bud" Woods Palmer Municipal Airport (29 nm E)
 
Loc | Ops | Rwys | IFR | FBO | Links
Com | Nav | Svcs | Stats | Notes

Crowley Maritime Corporation
 
Area around 25AK (Honeybee Lake Aero Park Airport)
 
Road maps at: MapQuest Bing Google
 
Aerial photo
No photo
 
Sectional chart

 
Airport distance calculator
Flying to Honeybee Lake Aero Park Airport? Find the distance to fly.

From to 25AK

Sunrise and sunset
Times for 18-May-2022
 Local
(UTC-8)
 Zulu
(UTC)
Morning civil twilight03:4311:43
Sunrise05:0113:01
Sunset22:5206:52
Evening civil twilight00:1108:11

Current date and time
Zulu (UTC)  19-May-2022 05:06:37
Local (UTC-8)  18-May-2022 21:06:37
 
METAR
TAF
PAAQ 
29nm E 
181736Z 1818/1918 VRB05KT P6SM SCT100 FM182100 15008KT P6SM FEW060
PAED 
29nm S 
190200Z 1902/2008 24012KT 9999 FEW060 SCT200 QNH2998INS WND VRB06KT AFT 1908 TIL 1921 TX17/2000Z TN05/1914Z
PANC 
33nm S 
182037Z 1821/1924 26008KT P6SM SKC= TAF AMD KBUF 182038Z 1821/1918 24008KT P6SM OVC100 TEMPO 1822/1901 5SM -SHRA OVC040 FM190100 VRB03KT 6SM -SHRA OVC040 FM190700 10005KT 6SM -SHRA BR OVC025 FM191300 21005KT P6SM OVC007 FM191700 26009KT P6SM BKN012
PATK 
35nm N 
181736Z 1818/1918 36005KT P6SM FEW080 FM182100 35010G18KT P6SM SKC FM190500 VRB04KT P6SM SKC
NOTAMs
Click for the latest NOTAMs
NOTAMs are issued by the DoD/FAA and will open in a separate window not controlled by AirNav.

 

 
 

Would you like to see your business listed on this page?

 If your business provides an interesting product or service to pilots, flight crews, aircraft, or users of the Honeybee Lake Aero Park Airport, you should consider listing it here.  To start the listing process, click on the button below
 
Add a business
 

Other Pages about Honeybee Lake Aero Park Airport

Update a link
 
Copyright © AirNav, LLC. All rights reserved. Privacy Policy  Contact